Time;durP1;ratioP1;P1;durP2;ratioP2;P2;SDS_P1;SDS_P2;PMS_P1;PMS_P2;Temp;Humidity;BMP_temperature;BMP_pressure;BME280_temperature;BME280_humidity;BME280_pressure;Samples;Min_cycle;Max_cycle;Signal;HPM_P1;HPM_P2
2019/05/08 00:00:46;;;;;;;14.1;9.2;;;;;;;4.05;56.17285;94823.49;;;;
2019/05/08 00:01:47;;;;;;;14.1;9.2;;;;;;;4.05;56.17285;94823.49;;;;
2019/05/08 00:02:48;;;;;;;14.1;9.2;;;;;;;4.05;56.17285;94823.49;;;;
2019/05/08 00:03:49;;;;;;;14.1;9.2;;;;;;;4.05;56.17285;94823.49;;;;
2019/05/08 00:04:50;;;;;;;14.1;9.2;;;;;;;4.05;56.17285;94823.49;;;;
2019/05/08 00:05:52;;;;;;;14.1;9.2;;;;;;;4.05;56.17285;94823.49;;;;
2019/05/08 00:06:53;;;;;;;14.1;9.2;;;;;;;4.05;56.17285;94823.49;;;;
2019/05/08 00:07:54;;;;;;;14.1;9.2;;;;;;;4.05;56.17285;94823.49;;;;
2019/05/08 00:08:55;;;;;;;13.55;9.35;;;;;;;4.55;56.09863;94792.53;;;;
2019/05/08 00:09:56;;;;;;;13.55;9.35;;;;;;;4.55;56.09863;94792.53;;;;
2019/05/08 00:10:57;;;;;;;13.55;9.35;;;;;;;4.55;56.09863;94792.53;;;;
2019/05/08 00:11:58;;;;;;;13.55;9.35;;;;;;;4.55;56.09863;94792.53;;;;
2019/05/08 00:12:59;;;;;;;13.55;9.35;;;;;;;4.55;56.09863;94792.53;;;;
2019/05/08 00:14:00;;;;;;;13.55;9.35;;;;;;;4.55;56.09863;94792.53;;;;
2019/05/08 00:15:01;;;;;;;13.55;9.35;;;;;;;4.55;56.09863;94792.53;;;;
2019/05/08 00:16:04;;;;;;;13.55;9.35;;;;;;;4.55;56.09863;94792.53;;;;
2019/05/08 00:17:05;;;;;;;13.55;9.35;;;;;;;4.55;56.09863;94792.53;;;;
2019/05/08 00:18:06;;;;;;;13.55;9.35;;;;;;;4.55;56.09863;94792.53;;;;
2019/05/08 00:19:07;;;;;;;12.05;8.6;;;;;;;4.93;56.07324;94789.51;;;;
2019/05/08 00:20:08;;;;;;;12.05;8.6;;;;;;;4.93;56.07324;94789.51;;;;
2019/05/08 00:21:09;;;;;;;12.05;8.6;;;;;;;4.93;56.07324;94789.51;;;;
2019/05/08 00:22:18;;;;;;;12.05;8.6;;;;;;;4.93;56.07324;94789.51;;;;
2019/05/08 00:23:19;;;;;;;12.05;8.6;;;;;;;4.93;56.07324;94789.51;;;;
2019/05/08 00:24:20;;;;;;;12.05;8.6;;;;;;;4.93;56.07324;94789.51;;;;
2019/05/08 00:25:21;;;;;;;12.05;8.6;;;;;;;4.93;56.07324;94789.51;;;;
2019/05/08 00:26:22;;;;;;;12.05;8.6;;;;;;;4.93;56.07324;94789.51;;;;
2019/05/08 00:27:23;;;;;;;12.05;8.6;;;;;;;4.93;56.07324;94789.51;;;;
2019/05/08 00:28:24;;;;;;;12.05;8.6;;;;;;;4.93;56.07324;94789.51;;;;
2019/05/08 00:29:25;;;;;;;12.05;8.6;;;;;;;4.93;56.07324;94789.51;;;;
2019/05/08 00:30:26;;;;;;;11.4;8;;;;;;;5.31;56.60352;94787.53;;;;
2019/05/08 00:31:29;;;;;;;11.4;8;;;;;;;5.31;56.60352;94787.53;;;;
2019/05/08 00:37:40;;;;;;;11.4;8;;;;;;;5.31;56.60352;94787.53;;;;
2019/05/08 00:38:41;;;;;;;11.4;8;;;;;;;5.31;56.60352;94787.53;;;;
2019/05/08 00:39:42;;;;;;;11.4;8;;;;;;;5.31;56.60352;94787.53;;;;
2019/05/08 00:41:14;;;;;;;8.1;6.5;;;;;;;5.54;56.42969;94776.78;;;;
2019/05/08 00:42:15;;;;;;;8.1;6.5;;;;;;;5.54;56.42969;94776.78;;;;
2019/05/08 00:43:16;;;;;;;8.1;6.5;;;;;;;5.54;56.42969;94776.78;;;;
2019/05/08 00:44:17;;;;;;;8.1;6.5;;;;;;;5.54;56.42969;94776.78;;;;
2019/05/08 00:45:18;;;;;;;8.1;6.5;;;;;;;5.54;56.42969;94776.78;;;;
2019/05/08 00:46:19;;;;;;;8.1;6.5;;;;;;;5.54;56.42969;94776.78;;;;
2019/05/08 00:47:20;;;;;;;8.1;6.5;;;;;;;5.54;56.42969;94776.78;;;;
2019/05/08 00:48:21;;;;;;;8.1;6.5;;;;;;;5.54;56.42969;94776.78;;;;
2019/05/08 00:49:22;;;;;;;8.1;6.5;;;;;;;5.54;56.42969;94776.78;;;;
2019/05/08 00:50:24;;;;;;;8.1;6.5;;;;;;;5.54;56.42969;94776.78;;;;
2019/05/08 00:51:25;;;;;;;9.299999;7;;;;;;;5.69;56.44922;94760.27;;;;
2019/05/08 00:52:26;;;;;;;9.299999;7;;;;;;;5.69;56.44922;94760.27;;;;
2019/05/08 00:53:27;;;;;;;9.299999;7;;;;;;;5.69;56.44922;94760.27;;;;
2019/05/08 00:54:28;;;;;;;9.299999;7;;;;;;;5.69;56.44922;94760.27;;;;
2019/05/08 00:55:30;;;;;;;9.299999;7;;;;;;;5.69;56.44922;94760.27;;;;
2019/05/08 00:56:31;;;;;;;9.299999;7;;;;;;;5.69;56.44922;94760.27;;;;
2019/05/08 00:57:39;;;;;;;9.299999;7;;;;;;;5.69;56.44922;94760.27;;;;
2019/05/08 00:58:42;;;;;;;9.299999;7;;;;;;;5.69;56.44922;94760.27;;;;
2019/05/08 00:59:48;;;;;;;9.299999;7;;;;;;;5.69;56.44922;94760.27;;;;
2019/05/08 01:05:57;;;;;;;10.4;7.4;;;;;;;5.74;56.54102;94757.37;;;;
2019/05/08 01:06:59;;;;;;;10.4;7.4;;;;;;;5.74;56.54102;94757.37;;;;
2019/05/08 01:08:00;;;;;;;10.4;7.4;;;;;;;5.74;56.54102;94757.37;;;;
2019/05/08 01:09:02;;;;;;;10.4;7.4;;;;;;;5.74;56.54102;94757.37;;;;
2019/05/08 01:10:04;;;;;;;10.4;7.4;;;;;;;5.74;56.54102;94757.37;;;;
2019/05/08 01:11:06;;;;;;;10.4;7.4;;;;;;;5.74;56.54102;94757.37;;;;
2019/05/08 01:12:07;;;;;;;11.8;8.700001;;;;;;;5.8;56.70898;94755.03;;;;
2019/05/08 01:13:09;;;;;;;11.8;8.700001;;;;;;;5.8;56.70898;94755.03;;;;
2019/05/08 01:14:10;;;;;;;11.8;8.700001;;;;;;;5.8;56.70898;94755.03;;;;
2019/05/08 01:15:11;;;;;;;11.8;8.700001;;;;;;;5.8;56.70898;94755.03;;;;
2019/05/08 01:16:12;;;;;;;11.8;8.700001;;;;;;;5.8;56.70898;94755.03;;;;
2019/05/08 01:17:13;;;;;;;11.8;8.700001;;;;;;;5.8;56.70898;94755.03;;;;
2019/05/08 01:18:14;;;;;;;11.8;8.700001;;;;;;;5.8;56.70898;94755.03;;;;
2019/05/08 01:19:15;;;;;;;11.8;8.700001;;;;;;;5.8;56.70898;94755.03;;;;
2019/05/08 01:20:17;;;;;;;11.8;8.700001;;;;;;;5.8;56.70898;94755.03;;;;
2019/05/08 01:21:18;;;;;;;11.8;8.700001;;;;;;;5.8;56.70898;94755.03;;;;
2019/05/08 01:22:19;;;;;;;11.8;8.700001;;;;;;;5.8;56.70898;94755.03;;;;
2019/05/08 01:23:20;;;;;;;10.1;7.45;;;;;;;5.76;57.06543;94741.77;;;;
2019/05/08 01:24:22;;;;;;;10.1;7.45;;;;;;;5.76;57.06543;94741.77;;;;
2019/05/08 01:25:23;;;;;;;10.1;7.45;;;;;;;5.76;57.06543;94741.77;;;;
2019/05/08 01:26:24;;;;;;;10.1;7.45;;;;;;;5.76;57.06543;94741.77;;;;
2019/05/08 01:27:25;;;;;;;10.1;7.45;;;;;;;5.76;57.06543;94741.77;;;;
2019/05/08 01:28:26;;;;;;;10.1;7.45;;;;;;;5.76;57.06543;94741.77;;;;
2019/05/08 01:29:27;;;;;;;10.1;7.45;;;;;;;5.76;57.06543;94741.77;;;;
2019/05/08 01:30:28;;;;;;;10.1;7.45;;;;;;;5.76;57.06543;94741.77;;;;
2019/05/08 01:31:30;;;;;;;10.1;7.45;;;;;;;5.76;57.06543;94741.77;;;;
2019/05/08 01:32:31;;;;;;;10.1;7.45;;;;;;;5.76;57.06543;94741.77;;;;
2019/05/08 01:33:32;;;;;;;11.1;7.549999;;;;;;;5.76;57.20313;94732.5;;;;
2019/05/08 01:34:33;;;;;;;11.1;7.549999;;;;;;;5.76;57.20313;94732.5;;;;
2019/05/08 01:35:35;;;;;;;11.1;7.549999;;;;;;;5.76;57.20313;94732.5;;;;
2019/05/08 01:36:36;;;;;;;11.1;7.549999;;;;;;;5.76;57.20313;94732.5;;;;
2019/05/08 01:38:15;;;;;;;11.1;7.549999;;;;;;;5.76;57.20313;94732.5;;;;
2019/05/08 01:39:22;;;;;;;11.1;7.549999;;;;;;;5.76;57.20313;94732.5;;;;
2019/05/08 01:40:27;;;;;;;11.1;7.549999;;;;;;;5.76;57.20313;94732.5;;;;
2019/05/08 01:41:30;;;;;;;11.1;7.549999;;;;;;;5.76;57.20313;94732.5;;;;
2019/05/08 01:42:32;;;;;;;11.1;7.549999;;;;;;;5.76;57.20313;94732.5;;;;
2019/05/08 01:43:33;;;;;;;11.1;7.549999;;;;;;;5.76;57.20313;94732.5;;;;
2019/05/08 01:44:35;;;;;;;9.349998;7.35;;;;;;;5.73;57.43457;94723.99;;;;
2019/05/08 01:45:36;;;;;;;9.349998;7.35;;;;;;;5.73;57.43457;94723.99;;;;
2019/05/08 01:46:37;;;;;;;9.349998;7.35;;;;;;;5.73;57.43457;94723.99;;;;
2019/05/08 01:47:38;;;;;;;9.349998;7.35;;;;;;;5.73;57.43457;94723.99;;;;
2019/05/08 01:48:39;;;;;;;9.349998;7.35;;;;;;;5.73;57.43457;94723.99;;;;
2019/05/08 01:49:40;;;;;;;9.349998;7.35;;;;;;;5.73;57.43457;94723.99;;;;
2019/05/08 01:50:42;;;;;;;9.349998;7.35;;;;;;;5.73;57.43457;94723.99;;;;
2019/05/08 01:51:43;;;;;;;9.349998;7.35;;;;;;;5.73;57.43457;94723.99;;;;
2019/05/08 01:52:44;;;;;;;9.349998;7.35;;;;;;;5.73;57.43457;94723.99;;;;
2019/05/08 01:53:45;;;;;;;9.349998;7.35;;;;;;;5.73;57.43457;94723.99;;;;
2019/05/08 01:54:46;;;;;;;8.899999;7.05;;;;;;;5.82;57.57324;94712.87;;;;
2019/05/08 01:55:48;;;;;;;8.899999;7.05;;;;;;;5.82;57.57324;94712.87;;;;
2019/05/08 01:56:49;;;;;;;8.899999;7.05;;;;;;;5.82;57.57324;94712.87;;;;
2019/05/08 01:57:50;;;;;;;8.899999;7.05;;;;;;;5.82;57.57324;94712.87;;;;
2019/05/08 01:58:52;;;;;;;8.899999;7.05;;;;;;;5.82;57.57324;94712.87;;;;
2019/05/08 01:59:53;;;;;;;8.899999;7.05;;;;;;;5.82;57.57324;94712.87;;;;
2019/05/08 02:00:54;;;;;;;8.899999;7.05;;;;;;;5.82;57.57324;94712.87;;;;
2019/05/08 02:01:55;;;;;;;8.899999;7.05;;;;;;;5.82;57.57324;94712.87;;;;
2019/05/08 02:02:56;;;;;;;8.899999;7.05;;;;;;;5.82;57.57324;94712.87;;;;
2019/05/08 02:03:57;;;;;;;8.899999;7.05;;;;;;;5.82;57.57324;94712.87;;;;
2019/05/08 02:04:58;;;;;;;8.899999;7.05;;;;;;;5.82;57.57324;94712.87;;;;
2019/05/08 02:06:00;;;;;;;9.55;6.799999;;;;;;;5.83;57.86133;94698.88;;;;
2019/05/08 02:07:01;;;;;;;9.55;6.799999;;;;;;;5.83;57.86133;94698.88;;;;
2019/05/08 02:08:03;;;;;;;9.55;6.799999;;;;;;;5.83;57.86133;94698.88;;;;
2019/05/08 02:09:04;;;;;;;9.55;6.799999;;;;;;;5.83;57.86133;94698.88;;;;
2019/05/08 02:10:06;;;;;;;9.55;6.799999;;;;;;;5.83;57.86133;94698.88;;;;
2019/05/08 02:11:07;;;;;;;9.55;6.799999;;;;;;;5.83;57.86133;94698.88;;;;
2019/05/08 02:12:08;;;;;;;9.55;6.799999;;;;;;;5.83;57.86133;94698.88;;;;
2019/05/08 02:13:09;;;;;;;9.55;6.799999;;;;;;;5.83;57.86133;94698.88;;;;
2019/05/08 02:14:11;;;;;;;9.55;6.799999;;;;;;;5.83;57.86133;94698.88;;;;
2019/05/08 02:15:12;;;;;;;9.55;6.799999;;;;;;;5.83;57.86133;94698.88;;;;
2019/05/08 02:16:13;;;;;;;9.55;6.799999;;;;;;;5.83;57.86133;94698.88;;;;
2019/05/08 02:17:14;;;;;;;9.55;6.799999;;;;;;;5.83;57.86133;94698.88;;;;
2019/05/08 02:18:16;;;;;;;9.55;6.799999;;;;;;;5.83;57.86133;94698.88;;;;
2019/05/08 02:19:17;;;;;;;9.55;6.799999;;;;;;;5.83;57.86133;94698.88;;;;
2019/05/08 02:20:48;;;;;;;9.55;6.799999;;;;;;;5.83;57.86133;94698.88;;;;
2019/05/08 02:21:55;;;;;;;9.55;6.799999;;;;;;;5.83;57.86133;94698.88;;;;
2019/05/08 02:23:02;;;;;;;9.55;6.799999;;;;;;;5.83;57.86133;94698.88;;;;
2019/05/08 02:24:08;;;;;;;9.55;6.799999;;;;;;;5.83;57.86133;94698.88;;;;
2019/05/08 02:25:15;;;;;;;9.55;6.799999;;;;;;;5.83;57.86133;94698.88;;;;
2019/05/08 02:26:45;;;;;;;9.499999;6.9;;;;;;;5.87;58.19629;94675.05;;;;
2019/05/08 02:28:09;;;;;;;9.499999;6.9;;;;;;;5.87;58.19629;94675.05;;;;
2019/05/08 02:29:11;;;;;;;9.499999;6.9;;;;;;;5.87;58.19629;94675.05;;;;
2019/05/08 02:30:13;;;;;;;9.499999;6.9;;;;;;;5.87;58.19629;94675.05;;;;
2019/05/08 02:31:15;;;;;;;9.499999;6.9;;;;;;;5.87;58.19629;94675.05;;;;
2019/05/08 02:32:16;;;;;;;9.499999;6.9;;;;;;;5.87;58.19629;94675.05;;;;
2019/05/08 02:33:17;;;;;;;9.499999;6.9;;;;;;;5.87;58.19629;94675.05;;;;
2019/05/08 02:34:18;;;;;;;9.499999;6.9;;;;;;;5.87;58.19629;94675.05;;;;
2019/05/08 02:35:19;;;;;;;9.499999;6.9;;;;;;;5.87;58.19629;94675.05;;;;
2019/05/08 02:36:20;;;;;;;9.499999;6.9;;;;;;;5.87;58.19629;94675.05;;;;
2019/05/08 02:37:22;;;;;;;9.15;6.550001;;;;;;;5.89;58.3584;94674.41;;;;
2019/05/08 02:38:23;;;;;;;9.15;6.550001;;;;;;;5.89;58.3584;94674.41;;;;
2019/05/08 02:39:24;;;;;;;9.15;6.550001;;;;;;;5.89;58.3584;94674.41;;;;
2019/05/08 02:40:25;;;;;;;9.15;6.550001;;;;;;;5.89;58.3584;94674.41;;;;
2019/05/08 02:41:26;;;;;;;9.15;6.550001;;;;;;;5.89;58.3584;94674.41;;;;
2019/05/08 02:42:27;;;;;;;9.15;6.550001;;;;;;;5.89;58.3584;94674.41;;;;
2019/05/08 02:43:28;;;;;;;9.15;6.550001;;;;;;;5.89;58.3584;94674.41;;;;
2019/05/08 02:44:29;;;;;;;9.15;6.550001;;;;;;;5.89;58.3584;94674.41;;;;
2019/05/08 02:45:30;;;;;;;9.15;6.550001;;;;;;;5.89;58.3584;94674.41;;;;
2019/05/08 02:46:32;;;;;;;9.15;6.550001;;;;;;;5.89;58.3584;94674.41;;;;
2019/05/08 02:47:33;;;;;;;7.8;6.149999;;;;;;;5.82;58.55176;94660.13;;;;
2019/05/08 02:48:34;;;;;;;7.8;6.149999;;;;;;;5.82;58.55176;94660.13;;;;
2019/05/08 02:49:35;;;;;;;7.8;6.149999;;;;;;;5.82;58.55176;94660.13;;;;
2019/05/08 02:50:36;;;;;;;7.8;6.149999;;;;;;;5.82;58.55176;94660.13;;;;
2019/05/08 02:51:37;;;;;;;7.8;6.149999;;;;;;;5.82;58.55176;94660.13;;;;
2019/05/08 02:52:39;;;;;;;7.8;6.149999;;;;;;;5.82;58.55176;94660.13;;;;
2019/05/08 02:53:40;;;;;;;7.8;6.149999;;;;;;;5.82;58.55176;94660.13;;;;
2019/05/08 02:54:41;;;;;;;7.8;6.149999;;;;;;;5.82;58.55176;94660.13;;;;
2019/05/08 02:55:42;;;;;;;7.8;6.149999;;;;;;;5.82;58.55176;94660.13;;;;
2019/05/08 02:56:43;;;;;;;7.8;6.149999;;;;;;;5.82;58.55176;94660.13;;;;
2019/05/08 02:57:45;;;;;;;7.8;6.149999;;;;;;;5.82;58.55176;94660.13;;;;
2019/05/08 02:58:46;;;;;;;6.5;5.349999;;;;;;;5.9;58.90234;94645.67;;;;
2019/05/08 02:59:47;;;;;;;6.5;5.349999;;;;;;;5.9;58.90234;94645.67;;;;
2019/05/08 03:00:48;;;;;;;6.5;5.349999;;;;;;;5.9;58.90234;94645.67;;;;
2019/05/08 03:01:52;;;;;;;6.5;5.349999;;;;;;;5.9;58.90234;94645.67;;;;
2019/05/08 03:06:09;;;;;;;6.5;5.349999;;;;;;;5.9;58.90234;94645.67;;;;
2019/05/08 03:07:10;;;;;;;6.5;5.349999;;;;;;;5.9;58.90234;94645.67;;;;
2019/05/08 03:08:11;;;;;;;6.5;5.349999;;;;;;;5.9;58.90234;94645.67;;;;
2019/05/08 03:09:12;;;;;;;6.050001;5.299999;;;;;;;5.91;58.97852;94642.35;;;;
2019/05/08 03:10:14;;;;;;;6.050001;5.299999;;;;;;;5.91;58.97852;94642.35;;;;
2019/05/08 03:11:15;;;;;;;6.050001;5.299999;;;;;;;5.91;58.97852;94642.35;;;;
2019/05/08 03:12:16;;;;;;;6.050001;5.299999;;;;;;;5.91;58.97852;94642.35;;;;
2019/05/08 03:13:17;;;;;;;6.050001;5.299999;;;;;;;5.91;58.97852;94642.35;;;;
2019/05/08 03:14:18;;;;;;;6.050001;5.299999;;;;;;;5.91;58.97852;94642.35;;;;
2019/05/08 03:15:19;;;;;;;6.050001;5.299999;;;;;;;5.91;58.97852;94642.35;;;;
2019/05/08 03:16:20;;;;;;;6.050001;5.299999;;;;;;;5.91;58.97852;94642.35;;;;
2019/05/08 03:17:21;;;;;;;6.050001;5.299999;;;;;;;5.91;58.97852;94642.35;;;;
2019/05/08 03:18:22;;;;;;;6.050001;5.299999;;;;;;;5.91;58.97852;94642.35;;;;
2019/05/08 03:19:23;;;;;;;6.1;5.25;;;;;;;5.98;59.0625;94634.12;;;;
2019/05/08 03:20:24;;;;;;;6.1;5.25;;;;;;;5.98;59.0625;94634.12;;;;
2019/05/08 03:21:25;;;;;;;6.1;5.25;;;;;;;5.98;59.0625;94634.12;;;;
2019/05/08 03:22:26;;;;;;;6.1;5.25;;;;;;;5.98;59.0625;94634.12;;;;
2019/05/08 03:23:27;;;;;;;6.1;5.25;;;;;;;5.98;59.0625;94634.12;;;;
2019/05/08 03:24:34;;;;;;;6.1;5.25;;;;;;;5.98;59.0625;94634.12;;;;
2019/05/08 03:25:41;;;;;;;6.1;5.25;;;;;;;5.98;59.0625;94634.12;;;;
2019/05/08 03:26:48;;;;;;;6.1;5.25;;;;;;;5.98;59.0625;94634.12;;;;
2019/05/08 03:27:50;;;;;;;6.1;5.25;;;;;;;5.98;59.0625;94634.12;;;;
2019/05/08 03:28:51;;;;;;;6.1;5.25;;;;;;;5.98;59.0625;94634.12;;;;
2019/05/08 03:29:52;;;;;;;6.1;5.25;;;;;;;5.98;59.0625;94634.12;;;;
2019/05/08 03:30:53;;;;;;;6.1;5.25;;;;;;;5.98;59.0625;94634.12;;;;
2019/05/08 03:31:54;;;;;;;6.1;5.25;;;;;;;5.98;59.0625;94634.12;;;;
2019/05/08 03:32:55;;;;;;;6.1;5.25;;;;;;;5.98;59.0625;94634.12;;;;
2019/05/08 03:33:56;;;;;;;6.1;5.25;;;;;;;5.98;59.0625;94634.12;;;;
2019/05/08 03:34:57;;;;;;;6.1;5.25;;;;;;;5.98;59.0625;94634.12;;;;
2019/05/08 03:35:58;;;;;;;6.1;5.25;;;;;;;5.98;59.0625;94634.12;;;;
2019/05/08 03:36:59;;;;;;;6.1;5.25;;;;;;;5.98;59.0625;94634.12;;;;
2019/05/08 03:38:00;;;;;;;6.1;5.25;;;;;;;5.98;59.0625;94634.12;;;;
2019/05/08 03:39:02;;;;;;;6.1;5.25;;;;;;;5.98;59.0625;94634.12;;;;
2019/05/08 03:40:05;;;;;;;6.1;5.25;;;;;;;5.98;59.0625;94634.12;;;;
2019/05/08 03:41:06;;;;;;;5.7;4.95;;;;;;;6;59.42676;94611.11;;;;
2019/05/08 03:42:07;;;;;;;5.7;4.95;;;;;;;6;59.42676;94611.11;;;;
2019/05/08 03:43:08;;;;;;;5.7;4.95;;;;;;;6;59.42676;94611.11;;;;
2019/05/08 03:44:09;;;;;;;5.7;4.95;;;;;;;6;59.42676;94611.11;;;;
2019/05/08 03:45:13;;;;;;;5.7;4.95;;;;;;;6;59.42676;94611.11;;;;
2019/05/08 03:46:22;;;;;;;5.7;4.95;;;;;;;6;59.42676;94611.11;;;;
2019/05/08 03:47:29;;;;;;;5.7;4.95;;;;;;;6;59.42676;94611.11;;;;
2019/05/08 03:49:02;;;;;;;5.7;4.95;;;;;;;6;59.42676;94611.11;;;;
2019/05/08 03:50:03;;;;;;;5.7;4.95;;;;;;;6;59.42676;94611.11;;;;
2019/05/08 03:51:04;;;;;;;6.65;4.9;;;;;;;5.98;59.71094;94607.84;;;;
2019/05/08 03:52:05;;;;;;;6.65;4.9;;;;;;;5.98;59.71094;94607.84;;;;
2019/05/08 03:53:07;;;;;;;6.65;4.9;;;;;;;5.98;59.71094;94607.84;;;;
2019/05/08 03:54:08;;;;;;;6.65;4.9;;;;;;;5.98;59.71094;94607.84;;;;
2019/05/08 03:55:09;;;;;;;6.65;4.9;;;;;;;5.98;59.71094;94607.84;;;;
2019/05/08 03:56:10;;;;;;;6.65;4.9;;;;;;;5.98;59.71094;94607.84;;;;
2019/05/08 03:57:11;;;;;;;6.65;4.9;;;;;;;5.98;59.71094;94607.84;;;;
2019/05/08 03:58:12;;;;;;;6.65;4.9;;;;;;;5.98;59.71094;94607.84;;;;
2019/05/08 03:59:13;;;;;;;6.65;4.9;;;;;;;5.98;59.71094;94607.84;;;;
2019/05/08 04:00:14;;;;;;;6.65;4.9;;;;;;;5.98;59.71094;94607.84;;;;
2019/05/08 04:01:16;;;;;;;6.65;4.9;;;;;;;5.98;59.71094;94607.84;;;;
2019/05/08 04:02:17;;;;;;;5.95;4.65;;;;;;;6.07;59.8291;94599.38;;;;
2019/05/08 04:03:18;;;;;;;5.95;4.65;;;;;;;6.07;59.8291;94599.38;;;;
2019/05/08 04:04:19;;;;;;;5.95;4.65;;;;;;;6.07;59.8291;94599.38;;;;
2019/05/08 04:05:20;;;;;;;5.95;4.65;;;;;;;6.07;59.8291;94599.38;;;;
2019/05/08 04:06:21;;;;;;;5.95;4.65;;;;;;;6.07;59.8291;94599.38;;;;
2019/05/08 04:07:22;;;;;;;5.95;4.65;;;;;;;6.07;59.8291;94599.38;;;;
2019/05/08 04:08:23;;;;;;;5.95;4.65;;;;;;;6.07;59.8291;94599.38;;;;
2019/05/08 04:09:24;;;;;;;5.95;4.65;;;;;;;6.07;59.8291;94599.38;;;;
2019/05/08 04:10:25;;;;;;;5.95;4.65;;;;;;;6.07;59.8291;94599.38;;;;
2019/05/08 04:11:26;;;;;;;5.95;4.65;;;;;;;6.07;59.8291;94599.38;;;;
2019/05/08 04:12:28;;;;;;;6.099999;4.900001;;;;;;;6.13;59.89063;94589.12;;;;
2019/05/08 04:13:29;;;;;;;6.099999;4.900001;;;;;;;6.13;59.89063;94589.12;;;;
2019/05/08 04:14:30;;;;;;;6.099999;4.900001;;;;;;;6.13;59.89063;94589.12;;;;
2019/05/08 04:15:44;;;;;;;6.099999;4.900001;;;;;;;6.13;59.89063;94589.12;;;;
2019/05/08 04:17:26;;;;;;;6.099999;4.900001;;;;;;;6.13;59.89063;94589.12;;;;
2019/05/08 04:18:45;;;;;;;6.099999;4.900001;;;;;;;6.13;59.89063;94589.12;;;;
2019/05/08 04:19:47;;;;;;;6.099999;4.900001;;;;;;;6.13;59.89063;94589.12;;;;
2019/05/08 04:20:48;;;;;;;6.099999;4.900001;;;;;;;6.13;59.89063;94589.12;;;;
2019/05/08 04:21:49;;;;;;;6.099999;4.900001;;;;;;;6.13;59.89063;94589.12;;;;
2019/05/08 04:22:50;;;;;;;6.199998;4.349999;;;;;;;6.39;59.99121;94587.03;;;;
2019/05/08 04:23:51;;;;;;;6.199998;4.349999;;;;;;;6.39;59.99121;94587.03;;;;
2019/05/08 04:24:52;;;;;;;6.199998;4.349999;;;;;;;6.39;59.99121;94587.03;;;;
2019/05/08 04:25:54;;;;;;;6.199998;4.349999;;;;;;;6.39;59.99121;94587.03;;;;
2019/05/08 04:26:55;;;;;;;6.199998;4.349999;;;;;;;6.39;59.99121;94587.03;;;;
2019/05/08 04:27:56;;;;;;;6.199998;4.349999;;;;;;;6.39;59.99121;94587.03;;;;
2019/05/08 04:28:57;;;;;;;6.199998;4.349999;;;;;;;6.39;59.99121;94587.03;;;;
2019/05/08 04:29:58;;;;;;;6.199998;4.349999;;;;;;;6.39;59.99121;94587.03;;;;
2019/05/08 04:30:59;;;;;;;6.199998;4.349999;;;;;;;6.39;59.99121;94587.03;;;;
2019/05/08 04:32:00;;;;;;;6.199998;4.349999;;;;;;;6.39;59.99121;94587.03;;;;
2019/05/08 04:33:01;;;;;;;6.199998;4.349999;;;;;;;6.39;59.99121;94587.03;;;;
2019/05/08 04:34:02;;;;;;;6.199998;4.349999;;;;;;;6.39;59.99121;94587.03;;;;
2019/05/08 04:35:03;;;;;;;6.199998;4.349999;;;;;;;6.39;59.99121;94587.03;;;;
2019/05/08 04:36:04;;;;;;;6.199998;4.349999;;;;;;;6.39;59.99121;94587.03;;;;
2019/05/08 04:37:05;;;;;;;6.199998;4.349999;;;;;;;6.39;59.99121;94587.03;;;;
2019/05/08 04:38:06;;;;;;;6.199998;4.349999;;;;;;;6.39;59.99121;94587.03;;;;
2019/05/08 04:39:08;;;;;;;6.199998;4.349999;;;;;;;6.39;59.99121;94587.03;;;;
2019/05/08 04:40:09;;;;;;;6.199998;4.349999;;;;;;;6.39;59.99121;94587.03;;;;
2019/05/08 04:41:10;;;;;;;6.199998;4.349999;;;;;;;6.39;59.99121;94587.03;;;;
2019/05/08 04:42:11;;;;;;;6.199998;4.349999;;;;;;;6.39;59.99121;94587.03;;;;
2019/05/08 04:43:12;;;;;;;6.199998;4.349999;;;;;;;6.39;59.99121;94587.03;;;;
2019/05/08 04:44:13;;;;;;;6.400001;4.950001;;;;;;;6.84;59.87402;94565.29;;;;
2019/05/08 04:45:14;;;;;;;6.400001;4.950001;;;;;;;6.84;59.87402;94565.29;;;;
2019/05/08 04:46:27;;;;;;;6.400001;4.950001;;;;;;;6.84;59.87402;94565.29;;;;
2019/05/08 04:47:38;;;;;;;6.400001;4.950001;;;;;;;6.84;59.87402;94565.29;;;;
2019/05/08 04:48:39;;;;;;;6.400001;4.950001;;;;;;;6.84;59.87402;94565.29;;;;
2019/05/08 04:49:40;;;;;;;6.400001;4.950001;;;;;;;6.84;59.87402;94565.29;;;;
2019/05/08 04:50:41;;;;;;;6.400001;4.950001;;;;;;;6.84;59.87402;94565.29;;;;
2019/05/08 04:51:43;;;;;;;6.400001;4.950001;;;;;;;6.84;59.87402;94565.29;;;;
2019/05/08 04:52:51;;;;;;;6.400001;4.950001;;;;;;;6.84;59.87402;94565.29;;;;
2019/05/08 04:54:00;;;;;;;6.400001;4.950001;;;;;;;6.84;59.87402;94565.29;;;;
2019/05/08 04:55:07;;;;;;;4.400001;4;;;;;;;7.11;59.79297;94554.94;;;;
2019/05/08 04:56:29;;;;;;;4.400001;4;;;;;;;7.11;59.79297;94554.94;;;;
2019/05/08 04:57:30;;;;;;;4.400001;4;;;;;;;7.11;59.79297;94554.94;;;;
2019/05/08 04:58:31;;;;;;;4.400001;4;;;;;;;7.11;59.79297;94554.94;;;;
2019/05/08 04:59:32;;;;;;;4.400001;4;;;;;;;7.11;59.79297;94554.94;;;;
2019/05/08 05:00:33;;;;;;;4.400001;4;;;;;;;7.11;59.79297;94554.94;;;;
2019/05/08 05:01:36;;;;;;;4.400001;4;;;;;;;7.11;59.79297;94554.94;;;;
2019/05/08 05:02:38;;;;;;;4.400001;4;;;;;;;7.11;59.79297;94554.94;;;;
2019/05/08 05:03:39;;;;;;;4.400001;4;;;;;;;7.11;59.79297;94554.94;;;;
2019/05/08 05:04:40;;;;;;;4.400001;4;;;;;;;7.11;59.79297;94554.94;;;;
2019/05/08 05:05:41;;;;;;;5.850001;3.95;;;;;;;7.55;59.65039;94542.38;;;;
2019/05/08 05:06:42;;;;;;;5.850001;3.95;;;;;;;7.55;59.65039;94542.38;;;;
2019/05/08 05:07:43;;;;;;;5.850001;3.95;;;;;;;7.55;59.65039;94542.38;;;;
2019/05/08 05:08:45;;;;;;;5.850001;3.95;;;;;;;7.55;59.65039;94542.38;;;;
2019/05/08 05:09:46;;;;;;;5.850001;3.95;;;;;;;7.55;59.65039;94542.38;;;;
2019/05/08 05:10:47;;;;;;;5.850001;3.95;;;;;;;7.55;59.65039;94542.38;;;;
2019/05/08 05:11:48;;;;;;;5.850001;3.95;;;;;;;7.55;59.65039;94542.38;;;;
2019/05/08 05:12:49;;;;;;;5.850001;3.95;;;;;;;7.55;59.65039;94542.38;;;;
2019/05/08 05:13:50;;;;;;;5.850001;3.95;;;;;;;7.55;59.65039;94542.38;;;;
2019/05/08 05:14:51;;;;;;;5.850001;3.95;;;;;;;7.55;59.65039;94542.38;;;;
2019/05/08 05:15:59;;;;;;;5.400001;3.8;;;;;;;8.03;59.27832;94555.79;;;;
2019/05/08 05:17:01;;;;;;;5.400001;3.8;;;;;;;8.03;59.27832;94555.79;;;;
2019/05/08 05:18:02;;;;;;;5.400001;3.8;;;;;;;8.03;59.27832;94555.79;;;;
2019/05/08 05:19:03;;;;;;;5.400001;3.8;;;;;;;8.03;59.27832;94555.79;;;;
2019/05/08 05:20:04;;;;;;;5.400001;3.8;;;;;;;8.03;59.27832;94555.79;;;;
2019/05/08 05:21:05;;;;;;;5.400001;3.8;;;;;;;8.03;59.27832;94555.79;;;;
2019/05/08 05:22:06;;;;;;;5.400001;3.8;;;;;;;8.03;59.27832;94555.79;;;;
2019/05/08 05:23:10;;;;;;;5.400001;3.8;;;;;;;8.03;59.27832;94555.79;;;;
2019/05/08 05:24:13;;;;;;;5.400001;3.8;;;;;;;8.03;59.27832;94555.79;;;;
2019/05/08 05:25:14;;;;;;;5.400001;3.8;;;;;;;8.03;59.27832;94555.79;;;;
2019/05/08 05:26:15;;;;;;;5.400001;3.8;;;;;;;8.03;59.27832;94555.79;;;;
2019/05/08 05:27:16;;;;;;;5.849999;3.35;;;;;;;8.76;58.65137;94551.44;;;;
2019/05/08 05:28:18;;;;;;;5.849999;3.35;;;;;;;8.76;58.65137;94551.44;;;;
2019/05/08 05:29:19;;;;;;;5.849999;3.35;;;;;;;8.76;58.65137;94551.44;;;;
2019/05/08 05:30:20;;;;;;;5.849999;3.35;;;;;;;8.76;58.65137;94551.44;;;;
2019/05/08 05:31:21;;;;;;;5.849999;3.35;;;;;;;8.76;58.65137;94551.44;;;;
2019/05/08 05:32:22;;;;;;;5.849999;3.35;;;;;;;8.76;58.65137;94551.44;;;;
2019/05/08 05:33:23;;;;;;;5.849999;3.35;;;;;;;8.76;58.65137;94551.44;;;;
2019/05/08 05:34:24;;;;;;;5.849999;3.35;;;;;;;8.76;58.65137;94551.44;;;;
2019/05/08 05:35:25;;;;;;;5.849999;3.35;;;;;;;8.76;58.65137;94551.44;;;;
2019/05/08 05:36:26;;;;;;;5.849999;3.35;;;;;;;8.76;58.65137;94551.44;;;;
2019/05/08 05:37:27;;;;;;;4.8;3.5;;;;;;;9.23;58.16797;94534.84;;;;
2019/05/08 05:38:28;;;;;;;4.8;3.5;;;;;;;9.23;58.16797;94534.84;;;;
2019/05/08 05:39:35;;;;;;;4.8;3.5;;;;;;;9.23;58.16797;94534.84;;;;
2019/05/08 05:40:40;;;;;;;4.8;3.5;;;;;;;9.23;58.16797;94534.84;;;;
2019/05/08 05:41:46;;;;;;;4.8;3.5;;;;;;;9.23;58.16797;94534.84;;;;
2019/05/08 05:42:53;;;;;;;4.8;3.5;;;;;;;9.23;58.16797;94534.84;;;;
2019/05/08 05:43:54;;;;;;;4.8;3.5;;;;;;;9.23;58.16797;94534.84;;;;
2019/05/08 05:44:55;;;;;;;4.8;3.5;;;;;;;9.23;58.16797;94534.84;;;;
2019/05/08 05:45:56;;;;;;;4.8;3.5;;;;;;;9.23;58.16797;94534.84;;;;
2019/05/08 05:46:58;;;;;;;4.8;3.5;;;;;;;9.23;58.16797;94534.84;;;;
2019/05/08 05:48:08;;;;;;;6.8;3.65;;;;;;;9.56;57.96387;94533.06;;;;
2019/05/08 05:49:09;;;;;;;6.8;3.65;;;;;;;9.56;57.96387;94533.06;;;;
2019/05/08 05:50:10;;;;;;;6.8;3.65;;;;;;;9.56;57.96387;94533.06;;;;
2019/05/08 05:51:11;;;;;;;6.8;3.65;;;;;;;9.56;57.96387;94533.06;;;;
2019/05/08 05:52:13;;;;;;;6.8;3.65;;;;;;;9.56;57.96387;94533.06;;;;
2019/05/08 05:53:14;;;;;;;6.8;3.65;;;;;;;9.56;57.96387;94533.06;;;;
2019/05/08 05:54:15;;;;;;;6.8;3.65;;;;;;;9.56;57.96387;94533.06;;;;
2019/05/08 05:55:16;;;;;;;6.8;3.65;;;;;;;9.56;57.96387;94533.06;;;;
2019/05/08 05:56:17;;;;;;;6.8;3.65;;;;;;;9.56;57.96387;94533.06;;;;
2019/05/08 05:57:18;;;;;;;6.8;3.65;;;;;;;9.56;57.96387;94533.06;;;;
2019/05/08 05:58:19;;;;;;;5.600001;3.65;;;;;;;9.82;57.74219;94537.34;;;;
2019/05/08 05:59:20;;;;;;;5.600001;3.65;;;;;;;9.82;57.74219;94537.34;;;;
2019/05/08 06:00:22;;;;;;;5.600001;3.65;;;;;;;9.82;57.74219;94537.34;;;;
2019/05/08 06:01:23;;;;;;;5.600001;3.65;;;;;;;9.82;57.74219;94537.34;;;;